sensor_id;sensor_type;location;lat;lon;timestamp;P1;durP1;ratioP1;P2;durP2;ratioP2
26391;SDS011;14572;43.120;1.178;2022-12-31T06:43:43;7.50;;;3.70;;
26391;SDS011;14572;43.120;1.178;2022-12-31T06:46:12;7.90;;;4.45;;
26391;SDS011;14572;43.120;1.178;2022-12-31T06:48:40;6.40;;;3.70;;
26391;SDS011;14572;43.120;1.178;2022-12-31T06:51:10;8.63;;;4.60;;
26391;SDS011;14572;43.120;1.178;2022-12-31T06:53:38;7.82;;;4.45;;
26391;SDS011;14572;43.120;1.178;2022-12-31T06:56:06;8.70;;;4.30;;
26391;SDS011;14572;43.120;1.178;2022-12-31T06:58:33;7.82;;;4.38;;
26391;SDS011;14572;43.120;1.178;2022-12-31T07:01:04;7.32;;;3.90;;
26391;SDS011;14572;43.120;1.178;2022-12-31T07:03:45;6.43;;;4.32;;
26391;SDS011;14572;43.120;1.178;2022-12-31T07:06:18;6.90;;;4.15;;
26391;SDS011;14572;43.120;1.178;2022-12-31T07:08:50;7.13;;;4.40;;
26391;SDS011;14572;43.120;1.178;2022-12-31T07:11:20;8.38;;;3.80;;
26391;SDS011;14572;43.120;1.178;2022-12-31T07:13:51;7.07;;;4.20;;
26391;SDS011;14572;43.120;1.178;2022-12-31T07:16:40;6.00;;;4.15;;
26391;SDS011;14572;43.120;1.178;2022-12-31T07:19:15;5.50;;;3.80;;
26391;SDS011;14572;43.120;1.178;2022-12-31T07:21:48;7.13;;;3.75;;
26391;SDS011;14572;43.120;1.178;2022-12-31T07:24:20;6.90;;;4.07;;
26391;SDS011;14572;43.120;1.178;2022-12-31T07:26:55;7.25;;;3.65;;
26391;SDS011;14572;43.120;1.178;2022-12-31T07:29:36;5.57;;;3.47;;
26391;SDS011;14572;43.120;1.178;2022-12-31T07:32:13;4.80;;;3.20;;
26391;SDS011;14572;43.120;1.178;2022-12-31T07:34:50;6.68;;;3.67;;
26391;SDS011;14572;43.120;1.178;2022-12-31T07:37:25;6.35;;;3.55;;
26391;SDS011;14572;43.120;1.178;2022-12-31T07:39:58;8.23;;;4.30;;
26391;SDS011;14572;43.120;1.178;2022-12-31T07:42:31;6.78;;;4.20;;
26391;SDS011;14572;43.120;1.178;2022-12-31T07:45:03;8.35;;;3.90;;
26391;SDS011;14572;43.120;1.178;2022-12-31T07:47:37;11.43;;;4.30;;
26391;SDS011;14572;43.120;1.178;2022-12-31T07:50:05;7.20;;;4.03;;
26391;SDS011;14572;43.120;1.178;2022-12-31T07:52:40;7.07;;;4.20;;
26391;SDS011;14572;43.120;1.178;2022-12-31T07:55:07;9.50;;;3.80;;
26391;SDS011;14572;43.120;1.178;2022-12-31T07:57:37;8.15;;;3.78;;
26391;SDS011;14572;43.120;1.178;2022-12-31T08:00:06;5.28;;;3.53;;
26391;SDS011;14572;43.120;1.178;2022-12-31T08:05:36;5.40;;;3.20;;
26391;SDS011;14572;43.120;1.178;2022-12-31T08:08:10;7.22;;;3.20;;
26391;SDS011;14572;43.120;1.178;2022-12-31T08:10:46;6.63;;;3.67;;
26391;SDS011;14572;43.120;1.178;2022-12-31T08:16:11;5.20;;;3.28;;
26391;SDS011;14572;43.120;1.178;2022-12-31T08:18:40;6.50;;;3.83;;
26391;SDS011;14572;43.120;1.178;2022-12-31T08:21:10;9.00;;;3.92;;
26391;SDS011;14572;43.120;1.178;2022-12-31T08:23:46;7.20;;;3.80;;
26391;SDS011;14572;43.120;1.178;2022-12-31T08:26:19;5.80;;;4.00;;
26391;SDS011;14572;43.120;1.178;2022-12-31T08:29:03;5.72;;;3.30;;
26391;SDS011;14572;43.120;1.178;2022-12-31T08:31:40;4.45;;;2.95;;
26391;SDS011;14572;43.120;1.178;2022-12-31T08:34:15;14.25;;;3.50;;
26391;SDS011;14572;43.120;1.178;2022-12-31T08:36:49;6.68;;;3.78;;
26391;SDS011;14572;43.120;1.178;2022-12-31T08:39:23;6.20;;;3.67;;
26391;SDS011;14572;43.120;1.178;2022-12-31T08:41:57;13.13;;;3.85;;
26391;SDS011;14572;43.120;1.178;2022-12-31T08:44:28;11.15;;;4.55;;
26391;SDS011;14572;43.120;1.178;2022-12-31T08:47:08;6.55;;;4.25;;
26391;SDS011;14572;43.120;1.178;2022-12-31T08:49:41;7.00;;;4.40;;
26391;SDS011;14572;43.120;1.178;2022-12-31T08:52:12;6.88;;;4.65;;
26391;SDS011;14572;43.120;1.178;2022-12-31T08:54:41;7.72;;;5.20;;
26391;SDS011;14572;43.120;1.178;2022-12-31T08:57:15;8.20;;;4.95;;
26391;SDS011;14572;43.120;1.178;2022-12-31T08:59:50;10.27;;;4.85;;
26391;SDS011;14572;43.120;1.178;2022-12-31T09:02:31;13.65;;;7.65;;
26391;SDS011;14572;43.120;1.178;2022-12-31T09:05:23;8.65;;;5.28;;
26391;SDS011;14572;43.120;1.178;2022-12-31T09:07:55;13.77;;;7.45;;
26391;SDS011;14572;43.120;1.178;2022-12-31T09:10:31;21.67;;;10.13;;
26391;SDS011;14572;43.120;1.178;2022-12-31T09:13:01;10.73;;;6.13;;
26391;SDS011;14572;43.120;1.178;2022-12-31T09:15:35;13.38;;;7.32;;
26391;SDS011;14572;43.120;1.178;2022-12-31T09:18:06;31.58;;;18.88;;
26391;SDS011;14572;43.120;1.178;2022-12-31T09:20:36;27.08;;;14.73;;
26391;SDS011;14572;43.120;1.178;2022-12-31T09:23:04;19.27;;;11.57;;
26391;SDS011;14572;43.120;1.178;2022-12-31T09:25:31;20.30;;;11.18;;
26391;SDS011;14572;43.120;1.178;2022-12-31T09:28:04;27.08;;;13.75;;
26391;SDS011;14572;43.120;1.178;2022-12-31T09:30:41;48.67;;;25.70;;
26391;SDS011;14572;43.120;1.178;2022-12-31T09:33:16;30.42;;;16.50;;
26391;SDS011;14572;43.120;1.178;2022-12-31T09:35:54;21.25;;;13.23;;
26391;SDS011;14572;43.120;1.178;2022-12-31T09:38:26;64.85;;;39.28;;
26391;SDS011;14572;43.120;1.178;2022-12-31T09:41:06;60.42;;;38.60;;
26391;SDS011;14572;43.120;1.178;2022-12-31T09:47:07;27.80;;;19.33;;
26391;SDS011;14572;43.120;1.178;2022-12-31T09:55:58;32.83;;;20.73;;
26391;SDS011;14572;43.120;1.178;2022-12-31T09:58:33;31.25;;;19.75;;
26391;SDS011;14572;43.120;1.178;2022-12-31T10:01:09;30.60;;;17.65;;
26391;SDS011;14572;43.120;1.178;2022-12-31T10:03:50;29.05;;;17.08;;
26391;SDS011;14572;43.120;1.178;2022-12-31T10:06:29;24.15;;;16.95;;
26391;SDS011;14572;43.120;1.178;2022-12-31T10:09:06;27.23;;;16.50;;
26391;SDS011;14572;43.120;1.178;2022-12-31T10:14:36;31.70;;;19.25;;
26391;SDS011;14572;43.120;1.178;2022-12-31T10:17:13;28.90;;;18.92;;
26391;SDS011;14572;43.120;1.178;2022-12-31T10:19:54;25.15;;;16.75;;
26391;SDS011;14572;43.120;1.178;2022-12-31T10:22:45;23.67;;;14.63;;
26391;SDS011;14572;43.120;1.178;2022-12-31T10:25:38;22.25;;;14.32;;
26391;SDS011;14572;43.120;1.178;2022-12-31T10:28:29;18.15;;;12.10;;
26391;SDS011;14572;43.120;1.178;2022-12-31T10:31:00;19.38;;;11.85;;
26391;SDS011;14572;43.120;1.178;2022-12-31T10:33:51;18.33;;;12.88;;
26391;SDS011;14572;43.120;1.178;2022-12-31T10:36:25;22.85;;;14.05;;
26391;SDS011;14572;43.120;1.178;2022-12-31T10:39:00;22.45;;;14.23;;
26391;SDS011;14572;43.120;1.178;2022-12-31T10:41:42;19.02;;;12.63;;
26391;SDS011;14572;43.120;1.178;2022-12-31T10:47:45;14.90;;;10.77;;
26391;SDS011;14572;43.120;1.178;2022-12-31T10:54:06;12.75;;;8.85;;
26391;SDS011;14572;43.120;1.178;2022-12-31T11:00:12;10.43;;;6.85;;
26391;SDS011;14572;43.120;1.178;2022-12-31T11:08:51;5.05;;;4.07;;
26391;SDS011;14572;43.120;1.178;2022-12-31T11:11:27;6.40;;;4.10;;
26391;SDS011;14572;43.120;1.178;2022-12-31T11:14:05;6.00;;;3.60;;
26391;SDS011;14572;43.120;1.178;2022-12-31T11:16:45;6.68;;;3.80;;
26391;SDS011;14572;43.120;1.178;2022-12-31T11:19:20;7.38;;;3.70;;
26391;SDS011;14572;43.120;1.178;2022-12-31T11:21:56;6.30;;;3.67;;
26391;SDS011;14572;43.120;1.178;2022-12-31T11:24:35;6.60;;;3.67;;
26391;SDS011;14572;43.120;1.178;2022-12-31T11:27:14;6.18;;;3.50;;
26391;SDS011;14572;43.120;1.178;2022-12-31T11:29:48;4.57;;;3.00;;
26391;SDS011;14572;43.120;1.178;2022-12-31T11:32:35;4.57;;;3.50;;
26391;SDS011;14572;43.120;1.178;2022-12-31T11:35:19;6.97;;;3.17;;
26391;SDS011;14572;43.120;1.178;2022-12-31T11:37:49;4.53;;;3.30;;
26391;SDS011;14572;43.120;1.178;2022-12-31T11:40:24;4.75;;;3.35;;
26391;SDS011;14572;43.120;1.178;2022-12-31T11:42:58;6.25;;;3.72;;
26391;SDS011;14572;43.120;1.178;2022-12-31T11:45:33;5.82;;;3.58;;
26391;SDS011;14572;43.120;1.178;2022-12-31T11:48:14;4.68;;;3.55;;
26391;SDS011;14572;43.120;1.178;2022-12-31T11:50:49;5.78;;;3.33;;
26391;SDS011;14572;43.120;1.178;2022-12-31T11:53:27;9.75;;;4.70;;
26391;SDS011;14572;43.120;1.178;2022-12-31T11:56:12;6.78;;;3.90;;
26391;SDS011;14572;43.120;1.178;2022-12-31T11:58:44;6.70;;;3.72;;
26391;SDS011;14572;43.120;1.178;2022-12-31T12:01:13;7.20;;;3.60;;
26391;SDS011;14572;43.120;1.178;2022-12-31T12:03:45;5.43;;;3.80;;
26391;SDS011;14572;43.120;1.178;2022-12-31T12:06:13;7.20;;;3.45;;
26391;SDS011;14572;43.120;1.178;2022-12-31T12:08:51;6.28;;;3.22;;
26391;SDS011;14572;43.120;1.178;2022-12-31T12:11:19;5.45;;;3.33;;
26391;SDS011;14572;43.120;1.178;2022-12-31T12:13:47;6.50;;;3.40;;
26391;SDS011;14572;43.120;1.178;2022-12-31T12:16:15;26.13;;;12.15;;
26391;SDS011;14572;43.120;1.178;2022-12-31T12:18:43;12.90;;;6.03;;
26391;SDS011;14572;43.120;1.178;2022-12-31T12:21:13;7.95;;;4.60;;
26391;SDS011;14572;43.120;1.178;2022-12-31T12:23:52;6.82;;;4.93;;
26391;SDS011;14572;43.120;1.178;2022-12-31T12:26:24;7.85;;;4.90;;
26391;SDS011;14572;43.120;1.178;2022-12-31T12:28:53;10.02;;;5.25;;
26391;SDS011;14572;43.120;1.178;2022-12-31T12:31:20;6.00;;;4.28;;
26391;SDS011;14572;43.120;1.178;2022-12-31T12:33:50;6.40;;;4.25;;
26391;SDS011;14572;43.120;1.178;2022-12-31T12:36:19;7.55;;;4.90;;
26391;SDS011;14572;43.120;1.178;2022-12-31T12:38:47;7.63;;;5.07;;
26391;SDS011;14572;43.120;1.178;2022-12-31T12:41:18;6.78;;;5.10;;
26391;SDS011;14572;43.120;1.178;2022-12-31T12:43:48;11.82;;;4.85;;
26391;SDS011;14572;43.120;1.178;2022-12-31T12:46:19;6.65;;;4.40;;
26391;SDS011;14572;43.120;1.178;2022-12-31T12:48:52;6.82;;;4.00;;
26391;SDS011;14572;43.120;1.178;2022-12-31T12:51:25;6.43;;;4.20;;
26391;SDS011;14572;43.120;1.178;2022-12-31T12:53:59;8.90;;;4.60;;
26391;SDS011;14572;43.120;1.178;2022-12-31T12:56:36;6.65;;;4.10;;
26391;SDS011;14572;43.120;1.178;2022-12-31T12:59:21;6.20;;;3.55;;
26391;SDS011;14572;43.120;1.178;2022-12-31T13:02:17;5.60;;;3.75;;
26391;SDS011;14572;43.120;1.178;2022-12-31T13:04:56;6.28;;;3.92;;
26391;SDS011;14572;43.120;1.178;2022-12-31T13:07:35;5.68;;;3.63;;
26391;SDS011;14572;43.120;1.178;2022-12-31T13:10:12;5.50;;;3.53;;
26391;SDS011;14572;43.120;1.178;2022-12-31T13:12:44;5.03;;;3.83;;
26391;SDS011;14572;43.120;1.178;2022-12-31T13:15:15;7.60;;;4.15;;
26391;SDS011;14572;43.120;1.178;2022-12-31T13:17:56;6.32;;;4.30;;
26391;SDS011;14572;43.120;1.178;2022-12-31T13:20:29;5.28;;;3.90;;
26391;SDS011;14572;43.120;1.178;2022-12-31T13:23:04;5.15;;;3.53;;
26391;SDS011;14572;43.120;1.178;2022-12-31T13:25:37;6.10;;;4.20;;
26391;SDS011;14572;43.120;1.178;2022-12-31T13:28:14;6.38;;;4.10;;
26391;SDS011;14572;43.120;1.178;2022-12-31T13:30:43;7.07;;;4.40;;
26391;SDS011;14572;43.120;1.178;2022-12-31T13:33:13;5.28;;;4.57;;
26391;SDS011;14572;43.120;1.178;2022-12-31T13:35:43;7.63;;;5.07;;
26391;SDS011;14572;43.120;1.178;2022-12-31T13:38:13;7.43;;;4.60;;
26391;SDS011;14572;43.120;1.178;2022-12-31T13:40:45;7.32;;;4.63;;
26391;SDS011;14572;43.120;1.178;2022-12-31T13:43:17;8.30;;;4.95;;
26391;SDS011;14572;43.120;1.178;2022-12-31T13:45:47;7.15;;;4.15;;
26391;SDS011;14572;43.120;1.178;2022-12-31T13:48:29;8.80;;;4.40;;
26391;SDS011;14572;43.120;1.178;2022-12-31T13:50:59;5.38;;;4.15;;
26391;SDS011;14572;43.120;1.178;2022-12-31T13:53:32;6.40;;;4.00;;
26391;SDS011;14572;43.120;1.178;2022-12-31T13:56:02;10.88;;;4.78;;
26391;SDS011;14572;43.120;1.178;2022-12-31T13:58:33;6.30;;;4.72;;
26391;SDS011;14572;43.120;1.178;2022-12-31T14:01:04;7.50;;;4.90;;
26391;SDS011;14572;43.120;1.178;2022-12-31T14:03:37;7.65;;;4.53;;
26391;SDS011;14572;43.120;1.178;2022-12-31T14:06:09;6.55;;;4.50;;
26391;SDS011;14572;43.120;1.178;2022-12-31T14:08:43;9.48;;;5.22;;
26391;SDS011;14572;43.120;1.178;2022-12-31T14:11:12;7.93;;;5.68;;
26391;SDS011;14572;43.120;1.178;2022-12-31T14:13:46;8.23;;;5.50;;
26391;SDS011;14572;43.120;1.178;2022-12-31T14:16:22;8.23;;;5.65;;
26391;SDS011;14572;43.120;1.178;2022-12-31T14:18:55;8.88;;;5.32;;
26391;SDS011;14572;43.120;1.178;2022-12-31T14:21:27;11.27;;;5.32;;
26391;SDS011;14572;43.120;1.178;2022-12-31T14:23:58;8.10;;;5.72;;
26391;SDS011;14572;43.120;1.178;2022-12-31T14:26:32;11.20;;;6.18;;
26391;SDS011;14572;43.120;1.178;2022-12-31T14:29:05;9.85;;;6.07;;
26391;SDS011;14572;43.120;1.178;2022-12-31T14:31:48;9.23;;;6.55;;
26391;SDS011;14572;43.120;1.178;2022-12-31T14:34:28;10.10;;;6.10;;
26391;SDS011;14572;43.120;1.178;2022-12-31T14:37:01;10.45;;;6.60;;
26391;SDS011;14572;43.120;1.178;2022-12-31T14:39:38;10.57;;;7.38;;
26391;SDS011;14572;43.120;1.178;2022-12-31T14:42:17;12.63;;;6.88;;
26391;SDS011;14572;43.120;1.178;2022-12-31T14:44:54;9.23;;;6.60;;
26391;SDS011;14572;43.120;1.178;2022-12-31T14:47:29;10.05;;;5.78;;
26391;SDS011;14572;43.120;1.178;2022-12-31T14:50:03;8.93;;;6.25;;
26391;SDS011;14572;43.120;1.178;2022-12-31T14:52:32;9.00;;;5.93;;
26391;SDS011;14572;43.120;1.178;2022-12-31T14:55:02;12.40;;;6.22;;
26391;SDS011;14572;43.120;1.178;2022-12-31T14:57:47;11.13;;;5.65;;
26391;SDS011;14572;43.120;1.178;2022-12-31T15:00:22;8.27;;;5.57;;
26391;SDS011;14572;43.120;1.178;2022-12-31T15:02:52;9.15;;;6.25;;
26391;SDS011;14572;43.120;1.178;2022-12-31T15:05:20;7.55;;;5.43;;
26391;SDS011;14572;43.120;1.178;2022-12-31T15:07:52;8.73;;;5.30;;
26391;SDS011;14572;43.120;1.178;2022-12-31T15:10:32;9.45;;;5.80;;
26391;SDS011;14572;43.120;1.178;2022-12-31T15:13:03;11.80;;;6.32;;
26391;SDS011;14572;43.120;1.178;2022-12-31T15:15:43;11.30;;;6.25;;
26391;SDS011;14572;43.120;1.178;2022-12-31T15:18:23;11.57;;;6.63;;
26391;SDS011;14572;43.120;1.178;2022-12-31T15:21:01;8.10;;;5.90;;
26391;SDS011;14572;43.120;1.178;2022-12-31T15:23:37;12.55;;;5.70;;
26391;SDS011;14572;43.120;1.178;2022-12-31T15:26:16;10.98;;;6.95;;
26391;SDS011;14572;43.120;1.178;2022-12-31T15:28:52;9.90;;;6.50;;
26391;SDS011;14572;43.120;1.178;2022-12-31T15:31:22;11.70;;;6.60;;
26391;SDS011;14572;43.120;1.178;2022-12-31T15:33:54;13.98;;;7.70;;
26391;SDS011;14572;43.120;1.178;2022-12-31T15:36:24;14.13;;;7.03;;
26391;SDS011;14572;43.120;1.178;2022-12-31T15:39:02;16.85;;;7.63;;
26391;SDS011;14572;43.120;1.178;2022-12-31T15:41:49;12.05;;;7.65;;
26391;SDS011;14572;43.120;1.178;2022-12-31T15:44:18;13.98;;;8.48;;
26391;SDS011;14572;43.120;1.178;2022-12-31T15:46:54;14.18;;;6.90;;
26391;SDS011;14572;43.120;1.178;2022-12-31T15:49:24;14.13;;;7.32;;
26391;SDS011;14572;43.120;1.178;2022-12-31T15:51:52;12.73;;;7.80;;
26391;SDS011;14572;43.120;1.178;2022-12-31T15:54:33;16.33;;;9.38;;
26391;SDS011;14572;43.120;1.178;2022-12-31T15:57:03;16.25;;;9.13;;
26391;SDS011;14572;43.120;1.178;2022-12-31T15:59:30;18.02;;;9.07;;
26391;SDS011;14572;43.120;1.178;2022-12-31T16:01:57;17.05;;;10.32;;
26391;SDS011;14572;43.120;1.178;2022-12-31T16:04:25;20.50;;;10.73;;
26391;SDS011;14572;43.120;1.178;2022-12-31T16:06:53;18.45;;;10.90;;
26391;SDS011;14572;43.120;1.178;2022-12-31T16:09:25;16.63;;;9.52;;
26391;SDS011;14572;43.120;1.178;2022-12-31T16:11:53;15.70;;;8.90;;
26391;SDS011;14572;43.120;1.178;2022-12-31T16:14:24;14.30;;;9.15;;
26391;SDS011;14572;43.120;1.178;2022-12-31T16:16:53;12.75;;;8.55;;
26391;SDS011;14572;43.120;1.178;2022-12-31T16:19:25;17.42;;;9.23;;
26391;SDS011;14572;43.120;1.178;2022-12-31T16:21:56;12.38;;;8.43;;
26391;SDS011;14572;43.120;1.178;2022-12-31T16:24:25;20.75;;;9.25;;
26391;SDS011;14572;43.120;1.178;2022-12-31T16:26:55;15.85;;;8.43;;
26391;SDS011;14572;43.120;1.178;2022-12-31T16:29:25;13.65;;;8.98;;
26391;SDS011;14572;43.120;1.178;2022-12-31T16:31:53;17.08;;;9.27;;
26391;SDS011;14572;43.120;1.178;2022-12-31T16:34:21;17.15;;;9.50;;
26391;SDS011;14572;43.120;1.178;2022-12-31T16:36:58;17.00;;;9.55;;
26391;SDS011;14572;43.120;1.178;2022-12-31T16:39:27;19.98;;;10.55;;
26391;SDS011;14572;43.120;1.178;2022-12-31T16:42:06;13.57;;;9.73;;
26391;SDS011;14572;43.120;1.178;2022-12-31T16:44:44;15.57;;;9.25;;
26391;SDS011;14572;43.120;1.178;2022-12-31T16:47:14;13.95;;;8.30;;
26391;SDS011;14572;43.120;1.178;2022-12-31T16:49:43;12.90;;;8.13;;
26391;SDS011;14572;43.120;1.178;2022-12-31T16:52:16;16.73;;;9.00;;
26391;SDS011;14572;43.120;1.178;2022-12-31T16:54:50;17.20;;;8.93;;
26391;SDS011;14572;43.120;1.178;2022-12-31T16:57:19;17.90;;;10.35;;
26391;SDS011;14572;43.120;1.178;2022-12-31T16:59:49;17.52;;;10.65;;
26391;SDS011;14572;43.120;1.178;2022-12-31T17:02:19;13.23;;;8.85;;
26391;SDS011;14572;43.120;1.178;2022-12-31T17:04:48;17.80;;;9.27;;
26391;SDS011;14572;43.120;1.178;2022-12-31T17:07:26;18.58;;;8.90;;
26391;SDS011;14572;43.120;1.178;2022-12-31T17:10:12;18.15;;;9.85;;
26391;SDS011;14572;43.120;1.178;2022-12-31T17:12:42;17.42;;;9.45;;
26391;SDS011;14572;43.120;1.178;2022-12-31T17:15:18;18.95;;;9.38;;
26391;SDS011;14572;43.120;1.178;2022-12-31T17:17:48;16.08;;;9.38;;
26391;SDS011;14572;43.120;1.178;2022-12-31T17:20:20;15.18;;;9.50;;
26391;SDS011;14572;43.120;1.178;2022-12-31T17:22:48;13.35;;;8.82;;
26391;SDS011;14572;43.120;1.178;2022-12-31T17:25:19;19.75;;;9.30;;
26391;SDS011;14572;43.120;1.178;2022-12-31T17:27:51;17.60;;;9.40;;
26391;SDS011;14572;43.120;1.178;2022-12-31T17:30:34;21.65;;;10.45;;
26391;SDS011;14572;43.120;1.178;2022-12-31T17:33:24;15.48;;;8.68;;
26391;SDS011;14572;43.120;1.178;2022-12-31T17:35:54;15.68;;;9.65;;
26391;SDS011;14572;43.120;1.178;2022-12-31T17:38:29;19.63;;;9.07;;
26391;SDS011;14572;43.120;1.178;2022-12-31T17:41:01;13.75;;;8.75;;
26391;SDS011;14572;43.120;1.178;2022-12-31T17:43:39;17.30;;;9.02;;
26391;SDS011;14572;43.120;1.178;2022-12-31T17:46:09;19.95;;;9.05;;
26391;SDS011;14572;43.120;1.178;2022-12-31T17:48:37;13.35;;;8.80;;
26391;SDS011;14572;43.120;1.178;2022-12-31T17:51:04;22.08;;;9.38;;
26391;SDS011;14572;43.120;1.178;2022-12-31T17:53:31;38.67;;;22.17;;
26391;SDS011;14572;43.120;1.178;2022-12-31T17:55:59;22.48;;;13.38;;
26391;SDS011;14572;43.120;1.178;2022-12-31T17:58:27;21.30;;;12.75;;
26391;SDS011;14572;43.120;1.178;2022-12-31T18:00:57;19.45;;;12.23;;
26391;SDS011;14572;43.120;1.178;2022-12-31T18:03:26;22.42;;;13.18;;
26391;SDS011;14572;43.120;1.178;2022-12-31T18:05:53;29.67;;;13.48;;
26391;SDS011;14572;43.120;1.178;2022-12-31T18:08:21;22.88;;;12.65;;
26391;SDS011;14572;43.120;1.178;2022-12-31T18:10:48;19.70;;;12.20;;
26391;SDS011;14572;43.120;1.178;2022-12-31T18:13:17;22.60;;;12.48;;
26391;SDS011;14572;43.120;1.178;2022-12-31T18:15:45;21.83;;;12.75;;
26391;SDS011;14572;43.120;1.178;2022-12-31T18:18:19;26.00;;;15.05;;
26391;SDS011;14572;43.120;1.178;2022-12-31T18:20:49;17.02;;;10.82;;
26391;SDS011;14572;43.120;1.178;2022-12-31T18:23:18;22.13;;;13.63;;
26391;SDS011;14572;43.120;1.178;2022-12-31T18:25:47;18.83;;;11.35;;
26391;SDS011;14572;43.120;1.178;2022-12-31T18:28:14;16.77;;;9.68;;
26391;SDS011;14572;43.120;1.178;2022-12-31T18:30:41;17.00;;;10.15;;
26391;SDS011;14572;43.120;1.178;2022-12-31T18:33:08;16.20;;;9.00;;
26391;SDS011;14572;43.120;1.178;2022-12-31T18:35:36;14.57;;;9.63;;
26391;SDS011;14572;43.120;1.178;2022-12-31T18:38:07;13.60;;;8.65;;
26391;SDS011;14572;43.120;1.178;2022-12-31T18:40:38;14.65;;;9.40;;
26391;SDS011;14572;43.120;1.178;2022-12-31T18:43:12;14.70;;;9.15;;
26391;SDS011;14572;43.120;1.178;2022-12-31T18:45:41;13.98;;;7.93;;
26391;SDS011;14572;43.120;1.178;2022-12-31T18:48:08;15.50;;;9.18;;
26391;SDS011;14572;43.120;1.178;2022-12-31T18:50:35;18.75;;;9.50;;
26391;SDS011;14572;43.120;1.178;2022-12-31T18:53:03;14.23;;;9.93;;
26391;SDS011;14572;43.120;1.178;2022-12-31T18:55:35;15.32;;;9.85;;
26391;SDS011;14572;43.120;1.178;2022-12-31T18:58:04;22.30;;;11.93;;
26391;SDS011;14572;43.120;1.178;2022-12-31T19:00:31;16.83;;;8.20;;
26391;SDS011;14572;43.120;1.178;2022-12-31T19:02:59;18.38;;;10.57;;
26391;SDS011;14572;43.120;1.178;2022-12-31T19:05:27;21.90;;;10.13;;
26391;SDS011;14572;43.120;1.178;2022-12-31T19:07:55;13.55;;;8.77;;
26391;SDS011;14572;43.120;1.178;2022-12-31T19:10:23;15.27;;;9.15;;
26391;SDS011;14572;43.120;1.178;2022-12-31T19:12:52;17.58;;;8.88;;
26391;SDS011;14572;43.120;1.178;2022-12-31T19:15:21;16.45;;;8.63;;
26391;SDS011;14572;43.120;1.178;2022-12-31T19:17:50;15.38;;;8.70;;
26391;SDS011;14572;43.120;1.178;2022-12-31T19:20:17;20.40;;;10.75;;
26391;SDS011;14572;43.120;1.178;2022-12-31T19:22:44;20.27;;;11.50;;
26391;SDS011;14572;43.120;1.178;2022-12-31T19:25:18;22.92;;;12.05;;
26391;SDS011;14572;43.120;1.178;2022-12-31T19:27:46;18.77;;;11.73;;
26391;SDS011;14572;43.120;1.178;2022-12-31T19:30:16;22.55;;;13.07;;
26391;SDS011;14572;43.120;1.178;2022-12-31T19:32:46;25.52;;;13.48;;
26391;SDS011;14572;43.120;1.178;2022-12-31T19:35:13;21.17;;;13.35;;
26391;SDS011;14572;43.120;1.178;2022-12-31T19:37:41;26.02;;;13.23;;
26391;SDS011;14572;43.120;1.178;2022-12-31T19:40:11;23.48;;;12.70;;
26391;SDS011;14572;43.120;1.178;2022-12-31T19:42:39;24.65;;;12.43;;
26391;SDS011;14572;43.120;1.178;2022-12-31T19:45:08;21.45;;;12.43;;
26391;SDS011;14572;43.120;1.178;2022-12-31T19:47:40;20.80;;;11.88;;
26391;SDS011;14572;43.120;1.178;2022-12-31T19:50:09;23.92;;;12.40;;
26391;SDS011;14572;43.120;1.178;2022-12-31T19:52:38;29.48;;;12.93;;
26391;SDS011;14572;43.120;1.178;2022-12-31T19:55:05;17.35;;;10.25;;
26391;SDS011;14572;43.120;1.178;2022-12-31T19:57:33;24.42;;;12.90;;
26391;SDS011;14572;43.120;1.178;2022-12-31T20:00:00;25.38;;;12.98;;
26391;SDS011;14572;43.120;1.178;2022-12-31T20:02:27;20.88;;;11.93;;
26391;SDS011;14572;43.120;1.178;2022-12-31T20:04:55;22.92;;;13.70;;
26391;SDS011;14572;43.120;1.178;2022-12-31T20:07:22;21.48;;;12.27;;
26391;SDS011;14572;43.120;1.178;2022-12-31T20:09:50;22.45;;;13.60;;
26391;SDS011;14572;43.120;1.178;2022-12-31T20:12:17;23.73;;;13.43;;
26391;SDS011;14572;43.120;1.178;2022-12-31T20:14:44;25.70;;;13.70;;
26391;SDS011;14572;43.120;1.178;2022-12-31T20:17:11;23.52;;;14.25;;
26391;SDS011;14572;43.120;1.178;2022-12-31T20:19:39;22.35;;;14.38;;
26391;SDS011;14572;43.120;1.178;2022-12-31T20:22:07;25.85;;;14.30;;
26391;SDS011;14572;43.120;1.178;2022-12-31T20:24:34;23.15;;;13.43;;
26391;SDS011;14572;43.120;1.178;2022-12-31T20:27:01;23.88;;;13.65;;
26391;SDS011;14572;43.120;1.178;2022-12-31T20:29:29;26.67;;;13.15;;
26391;SDS011;14572;43.120;1.178;2022-12-31T20:31:56;27.02;;;14.60;;
26391;SDS011;14572;43.120;1.178;2022-12-31T20:34:23;23.85;;;14.18;;
26391;SDS011;14572;43.120;1.178;2022-12-31T20:36:50;22.30;;;14.50;;
26391;SDS011;14572;43.120;1.178;2022-12-31T20:39:18;23.27;;;13.18;;
26391;SDS011;14572;43.120;1.178;2022-12-31T20:41:45;24.33;;;14.98;;
26391;SDS011;14572;43.120;1.178;2022-12-31T20:44:13;22.58;;;13.98;;
26391;SDS011;14572;43.120;1.178;2022-12-31T20:46:40;26.08;;;12.98;;
26391;SDS011;14572;43.120;1.178;2022-12-31T20:49:08;23.70;;;15.00;;
26391;SDS011;14572;43.120;1.178;2022-12-31T20:51:36;22.67;;;13.50;;
26391;SDS011;14572;43.120;1.178;2022-12-31T20:54:04;21.42;;;13.00;;
26391;SDS011;14572;43.120;1.178;2022-12-31T20:56:34;20.08;;;11.60;;
26391;SDS011;14572;43.120;1.178;2022-12-31T20:59:02;20.05;;;12.07;;
26391;SDS011;14572;43.120;1.178;2022-12-31T21:01:29;21.48;;;13.38;;
26391;SDS011;14572;43.120;1.178;2022-12-31T21:03:56;20.40;;;12.35;;
26391;SDS011;14572;43.120;1.178;2022-12-31T21:06:26;20.45;;;12.52;;
26391;SDS011;14572;43.120;1.178;2022-12-31T21:08:53;19.23;;;12.10;;
26391;SDS011;14572;43.120;1.178;2022-12-31T21:11:20;20.15;;;12.05;;
26391;SDS011;14572;43.120;1.178;2022-12-31T21:14:06;35.72;;;12.95;;
26391;SDS011;14572;43.120;1.178;2022-12-31T21:16:33;70.22;;;14.13;;
26391;SDS011;14572;43.120;1.178;2022-12-31T21:19:00;28.65;;;14.40;;
26391;SDS011;14572;43.120;1.178;2022-12-31T21:21:27;17.92;;;10.95;;
26391;SDS011;14572;43.120;1.178;2022-12-31T21:23:54;21.50;;;12.55;;
26391;SDS011;14572;43.120;1.178;2022-12-31T21:26:21;17.02;;;11.05;;
26391;SDS011;14572;43.120;1.178;2022-12-31T21:28:48;17.10;;;11.27;;
26391;SDS011;14572;43.120;1.178;2022-12-31T21:31:17;17.33;;;10.80;;
26391;SDS011;14572;43.120;1.178;2022-12-31T21:33:44;17.88;;;11.20;;
26391;SDS011;14572;43.120;1.178;2022-12-31T21:36:11;16.15;;;10.68;;
26391;SDS011;14572;43.120;1.178;2022-12-31T21:38:38;16.50;;;9.98;;
26391;SDS011;14572;43.120;1.178;2022-12-31T21:41:07;25.98;;;14.50;;
26391;SDS011;14572;43.120;1.178;2022-12-31T21:43:54;17.40;;;11.52;;
26391;SDS011;14572;43.120;1.178;2022-12-31T21:46:23;16.00;;;10.70;;
26391;SDS011;14572;43.120;1.178;2022-12-31T21:48:52;16.50;;;10.15;;
26391;SDS011;14572;43.120;1.178;2022-12-31T21:51:20;14.13;;;9.18;;
26391;SDS011;14572;43.120;1.178;2022-12-31T21:53:48;12.95;;;8.98;;
26391;SDS011;14572;43.120;1.178;2022-12-31T21:56:15;14.15;;;9.45;;
26391;SDS011;14572;43.120;1.178;2022-12-31T21:58:43;14.13;;;9.45;;
26391;SDS011;14572;43.120;1.178;2022-12-31T22:01:15;15.30;;;8.88;;
26391;SDS011;14572;43.120;1.178;2022-12-31T22:04:02;18.40;;;9.07;;
26391;SDS011;14572;43.120;1.178;2022-12-31T22:06:30;12.68;;;8.23;;
26391;SDS011;14572;43.120;1.178;2022-12-31T22:08:58;13.93;;;7.97;;
26391;SDS011;14572;43.120;1.178;2022-12-31T22:11:26;13.40;;;8.02;;
26391;SDS011;14572;43.120;1.178;2022-12-31T22:13:54;12.23;;;8.75;;
26391;SDS011;14572;43.120;1.178;2022-12-31T22:16:21;13.18;;;8.63;;
26391;SDS011;14572;43.120;1.178;2022-12-31T22:18:48;13.18;;;8.82;;
26391;SDS011;14572;43.120;1.178;2022-12-31T22:21:17;84.28;;;46.72;;
26391;SDS011;14572;43.120;1.178;2022-12-31T22:23:46;78.35;;;46.88;;